createdAt,value
2022-12-16T00:00:33.322Z,50.877201
2022-12-16T00:01:33.380Z,50.877190
2022-12-16T00:02:33.426Z,50.877178
2022-12-16T00:03:33.635Z,50.877178
2022-12-16T00:04:33.249Z,50.877186
2022-12-16T00:05:33.258Z,50.877205
2022-12-16T00:06:33.222Z,50.877193
2022-12-16T00:07:33.234Z,50.877220
2022-12-16T00:08:33.212Z,50.877201
2022-12-16T00:09:33.205Z,50.877178
2022-12-16T00:10:33.191Z,50.877197
2022-12-16T00:11:33.210Z,50.877201
2022-12-16T00:12:33.185Z,50.877193
2022-12-16T00:13:33.574Z,50.877201
2022-12-16T00:14:33.164Z,50.877224
2022-12-16T00:15:33.148Z,50.877190
2022-12-16T00:16:33.220Z,50.877167
2022-12-16T00:17:33.140Z,50.877186
2022-12-16T00:18:33.150Z,50.877148
2022-12-16T00:19:33.134Z,50.877190
2022-12-16T00:20:33.129Z,50.877201
2022-12-16T00:21:33.126Z,50.877209
2022-12-16T00:22:33.119Z,50.877228
2022-12-16T00:23:33.419Z,50.877220
2022-12-16T00:24:33.074Z,50.877201
2022-12-16T00:25:33.061Z,50.877182
2022-12-16T00:26:33.057Z,50.877155
2022-12-16T00:27:33.074Z,50.877125
2022-12-16T00:28:33.043Z,50.877216
2022-12-16T00:29:33.032Z,50.877178
2022-12-16T00:30:33.028Z,50.877201
2022-12-16T00:31:33.110Z,50.877205
2022-12-16T00:32:33.032Z,50.877186
2022-12-16T00:33:33.549Z,50.877209
2022-12-16T00:34:32.987Z,50.877190
2022-12-16T00:35:32.981Z,50.877182
2022-12-16T00:36:32.968Z,50.877190
2022-12-16T00:37:32.951Z,50.877163
2022-12-16T00:38:33.000Z,50.877201
2022-12-16T00:39:32.964Z,50.877201
2022-12-16T00:40:32.919Z,50.877224
2022-12-16T00:41:32.930Z,50.877228
2022-12-16T00:42:32.907Z,50.877239
2022-12-16T00:43:33.438Z,50.877209
2022-12-16T00:44:32.952Z,50.877190
2022-12-16T00:45:32.923Z,50.877174
2022-12-16T00:46:32.888Z,50.877193
2022-12-16T00:47:32.874Z,50.877254
2022-12-16T00:48:32.864Z,50.877300
2022-12-16T00:49:32.874Z,50.877270
2022-12-16T00:50:32.858Z,50.877235
2022-12-16T00:51:32.831Z,50.877209
2022-12-16T00:52:32.873Z,50.877190
2022-12-16T00:53:33.241Z,50.877220
2022-12-16T00:54:32.800Z,50.877209
2022-12-16T00:55:32.807Z,50.877190
2022-12-16T00:56:32.794Z,50.877216
2022-12-16T00:57:33.787Z,50.877186
2022-12-16T00:58:32.774Z,50.877205
2022-12-16T00:59:32.764Z,50.877205
2022-12-16T01:00:32.764Z,50.877167
2022-12-16T01:01:32.945Z,50.877075
2022-12-16T01:02:32.907Z,50.877068
2022-12-16T01:03:32.907Z,50.877197
2022-12-16T01:04:32.706Z,50.877174
2022-12-16T01:05:32.716Z,50.877163
2022-12-16T01:06:32.706Z,50.877171
2022-12-16T01:07:32.675Z,50.877216
2022-12-16T01:08:32.705Z,50.877151
2022-12-16T01:09:32.691Z,50.877171
2022-12-16T01:10:32.662Z,50.877102
2022-12-16T01:11:32.683Z,50.877163
2022-12-16T01:12:32.658Z,50.877205
2022-12-16T01:13:32.926Z,50.877186
2022-12-16T01:14:32.657Z,50.877155
2022-12-16T01:15:32.659Z,50.877106
2022-12-16T01:16:32.680Z,50.877129
2022-12-16T01:17:32.598Z,50.877167
2022-12-16T01:18:32.583Z,50.877186
2022-12-16T01:19:32.587Z,50.877209
2022-12-16T01:20:32.605Z,50.877186
2022-12-16T01:21:32.573Z,50.877174
2022-12-16T01:22:32.549Z,50.877155
2022-12-16T01:23:32.992Z,50.877201
2022-12-16T01:24:32.512Z,50.877228
2022-12-16T01:25:32.544Z,50.877209
2022-12-16T01:26:32.505Z,50.877220
2022-12-16T01:27:32.525Z,50.877190
2022-12-16T01:28:32.506Z,50.877186
2022-12-16T01:29:32.492Z,50.877117
2022-12-16T01:30:32.457Z,50.877129
2022-12-16T01:31:33.534Z,50.877205
2022-12-16T01:32:32.471Z,50.877193
2022-12-16T01:33:32.861Z,50.877197
2022-12-16T01:34:32.447Z,50.877190
2022-12-16T01:36:01.398Z,50.877186
2022-12-16T01:36:34.419Z,50.877197
2022-12-16T01:37:32.415Z,50.877193
2022-12-16T01:38:32.391Z,50.877209
2022-12-16T01:39:32.404Z,50.877182
2022-12-16T01:40:32.404Z,50.877186
2022-12-16T01:41:32.395Z,50.877174
2022-12-16T01:42:32.361Z,50.877205
2022-12-16T01:43:32.668Z,50.877216
2022-12-16T01:44:33.338Z,50.877213
2022-12-16T01:45:32.412Z,50.877201
2022-12-16T01:46:32.333Z,50.877220
2022-12-16T01:47:32.329Z,50.877216
2022-12-16T01:48:32.335Z,50.877220
2022-12-16T01:49:32.313Z,50.877220
2022-12-16T01:50:32.319Z,50.877224
2022-12-16T01:51:33.300Z,50.877197
2022-12-16T01:52:32.304Z,50.877224
2022-12-16T01:53:32.714Z,50.877220
2022-12-16T01:54:32.268Z,50.877228
2022-12-16T01:55:32.264Z,50.877209
2022-12-16T01:56:32.253Z,50.877197
2022-12-16T01:57:32.225Z,50.877220
2022-12-16T01:58:32.241Z,50.877182
2022-12-16T01:59:32.234Z,50.877205
2022-12-16T02:00:32.211Z,50.877220
2022-12-16T02:01:32.364Z,50.877224
2022-12-16T02:02:32.283Z,50.877224
2022-12-16T02:03:32.607Z,50.877213
2022-12-16T02:04:32.186Z,50.877232
2022-12-16T02:05:32.187Z,50.877228
2022-12-16T02:06:32.166Z,50.877201
2022-12-16T02:07:32.145Z,50.877213
2022-12-16T02:08:32.125Z,50.877232
2022-12-16T02:09:32.148Z,50.877232
2022-12-16T02:10:32.115Z,50.877216
2022-12-16T02:11:32.115Z,50.877232
2022-12-16T02:12:32.125Z,50.877216
2022-12-16T02:13:32.437Z,50.877216
2022-12-16T02:14:32.111Z,50.877239
2022-12-16T02:15:32.082Z,50.877239
2022-12-16T02:16:32.123Z,50.877159
2022-12-16T02:17:32.068Z,50.877197
2022-12-16T02:18:32.048Z,50.877197
2022-12-16T02:19:32.047Z,50.877106
2022-12-16T02:20:32.033Z,50.877171
2022-12-16T02:21:32.032Z,50.877213
2022-12-16T02:22:32.002Z,50.877197
2022-12-16T02:23:33.368Z,50.877125
2022-12-16T02:24:32.015Z,50.877129
2022-12-16T02:25:31.996Z,50.877178
2022-12-16T02:26:31.969Z,50.877235
2022-12-16T02:27:32.006Z,50.877182
2022-12-16T02:28:31.946Z,50.877167
2022-12-16T02:29:31.957Z,50.877216
2022-12-16T02:30:32.031Z,50.877224
2022-12-16T02:31:31.942Z,50.877140
2022-12-16T02:32:31.942Z,50.877132
2022-12-16T02:33:32.395Z,50.877213
2022-12-16T02:34:31.903Z,50.877151
2022-12-16T02:35:31.891Z,50.877113
2022-12-16T02:36:31.880Z,50.877087
2022-12-16T02:37:31.897Z,50.877178
2022-12-16T02:38:31.862Z,50.877060
2022-12-16T02:39:31.866Z,50.877079
2022-12-16T02:40:31.850Z,50.877178
2022-12-16T02:41:31.868Z,50.877174
2022-12-16T02:42:31.841Z,50.877190
2022-12-16T02:43:32.192Z,50.877209
2022-12-16T02:44:31.819Z,50.877213
2022-12-16T02:45:31.878Z,50.877232
2022-12-16T02:46:31.835Z,50.877216
2022-12-16T02:47:31.784Z,50.877205
2022-12-16T02:48:31.776Z,50.877293
2022-12-16T02:49:31.794Z,50.877235
2022-12-16T02:50:31.791Z,50.877205
2022-12-16T02:51:31.763Z,50.877377
2022-12-16T02:52:31.767Z,50.877247
2022-12-16T02:53:32.081Z,50.877209
2022-12-16T02:54:31.731Z,50.877228
2022-12-16T02:55:31.753Z,50.877220
2022-12-16T02:56:31.742Z,50.877247
2022-12-16T02:57:31.692Z,50.877174
2022-12-16T02:58:31.705Z,50.877167
2022-12-16T02:59:31.684Z,50.877151
2022-12-16T03:00:31.670Z,50.877190
2022-12-16T03:01:31.842Z,50.877190
2022-12-16T03:02:31.777Z,50.877270
2022-12-16T03:03:31.979Z,50.877254
2022-12-16T03:04:31.676Z,50.877254
2022-12-16T03:05:31.656Z,50.877247
2022-12-16T03:06:31.616Z,50.877308
2022-12-16T03:07:31.632Z,50.877262
2022-12-16T03:08:31.604Z,50.877235
2022-12-16T03:09:31.595Z,50.877235
2022-12-16T03:11:03.516Z,50.877037
2022-12-16T03:11:31.575Z,50.877121
2022-12-16T03:12:31.648Z,50.877106
2022-12-16T03:13:31.917Z,50.876976
2022-12-16T03:14:31.549Z,50.876972
2022-12-16T03:15:31.555Z,50.876896
2022-12-16T03:16:31.637Z,50.876896
2022-12-16T03:17:31.576Z,50.876896
2022-12-16T03:18:31.508Z,50.876896
2022-12-16T03:19:31.518Z,50.876896
2022-12-16T03:20:31.532Z,50.876896
2022-12-16T03:21:31.514Z,50.876896
2022-12-16T03:22:31.490Z,50.877224
2022-12-16T03:23:31.786Z,50.877121
2022-12-16T03:24:31.455Z,50.877129
2022-12-16T03:25:31.459Z,50.877071
2022-12-16T03:26:31.460Z,50.877178
2022-12-16T03:27:31.454Z,50.877213
2022-12-16T03:28:31.448Z,50.877190
2022-12-16T03:29:31.425Z,50.877197
2022-12-16T03:30:31.433Z,50.877224
2022-12-16T03:31:31.410Z,50.877201
2022-12-16T03:32:31.417Z,50.877216
2022-12-16T03:33:32.778Z,50.877216
2022-12-16T03:34:31.403Z,50.877201
2022-12-16T03:35:31.383Z,50.877220
2022-12-16T03:36:31.354Z,50.877258
2022-12-16T03:37:31.343Z,50.877262
2022-12-16T03:38:31.368Z,50.877213
2022-12-16T03:39:31.341Z,50.877163
2022-12-16T03:40:31.322Z,50.877151
2022-12-16T03:41:31.317Z,50.877174
2022-12-16T03:42:31.308Z,50.877220
2022-12-16T03:43:31.589Z,50.877182
2022-12-16T03:44:31.305Z,50.877148
2022-12-16T03:45:31.273Z,50.877144
2022-12-16T03:46:31.329Z,50.877190
2022-12-16T03:47:31.283Z,50.877239
2022-12-16T03:48:31.249Z,50.877201
2022-12-16T03:49:31.241Z,50.877018
2022-12-16T03:50:31.232Z,50.877216
2022-12-16T03:51:31.229Z,50.877171
2022-12-16T03:52:31.248Z,50.877186
2022-12-16T03:53:31.458Z,50.877083
2022-12-16T03:54:31.216Z,50.877213
2022-12-16T03:55:31.188Z,50.877159
2022-12-16T03:56:31.186Z,50.877186
2022-12-16T03:57:31.177Z,50.877193
2022-12-16T03:58:31.177Z,50.877186
2022-12-16T03:59:31.185Z,50.877243
2022-12-16T04:00:31.138Z,50.877201
2022-12-16T04:01:31.288Z,50.877201
2022-12-16T04:02:31.370Z,50.877186
2022-12-16T04:03:31.565Z,50.877163
2022-12-16T04:04:31.121Z,50.877209
2022-12-16T04:05:31.183Z,50.877232
2022-12-16T04:06:31.101Z,50.877213
2022-12-16T04:07:31.098Z,50.877232
2022-12-16T04:08:31.072Z,50.877029
2022-12-16T04:09:31.073Z,50.877087
2022-12-16T04:10:31.058Z,50.877148
2022-12-16T04:11:31.078Z,50.877151
2022-12-16T04:12:31.036Z,50.877224
2022-12-16T04:13:31.358Z,50.877201
2022-12-16T04:14:31.025Z,50.877193
2022-12-16T04:15:31.051Z,50.877213
2022-12-16T04:16:31.040Z,50.877129
2022-12-16T04:17:31.031Z,50.877201
2022-12-16T04:18:30.984Z,50.877216
2022-12-16T04:19:30.979Z,50.877228
2022-12-16T04:20:30.957Z,50.877171
2022-12-16T04:21:30.945Z,50.877197
2022-12-16T04:22:30.954Z,50.877171
2022-12-16T04:23:31.357Z,50.877171
2022-12-16T04:24:30.932Z,50.877136
2022-12-16T04:25:30.935Z,50.877186
2022-12-16T04:26:30.931Z,50.877193
2022-12-16T04:27:30.902Z,50.877254
2022-12-16T04:28:30.894Z,50.877182
2022-12-16T04:29:30.902Z,50.877190
2022-12-16T04:30:30.903Z,50.877201
2022-12-16T04:31:30.927Z,50.877209
2022-12-16T04:32:30.881Z,50.877197
2022-12-16T04:33:31.289Z,50.877144
2022-12-16T04:34:30.848Z,50.877201
2022-12-16T04:35:30.864Z,50.877190
2022-12-16T04:36:30.814Z,50.877209
2022-12-16T04:37:30.813Z,50.877258
2022-12-16T04:38:30.803Z,50.877155
2022-12-16T04:39:30.810Z,50.877209
2022-12-16T04:40:30.807Z,50.877171
2022-12-16T04:41:30.789Z,50.877247
2022-12-16T04:42:30.791Z,50.877197
2022-12-16T04:43:31.146Z,50.877167
2022-12-16T04:44:30.764Z,50.877266
2022-12-16T04:45:30.754Z,50.877209
2022-12-16T04:46:30.832Z,50.877190
2022-12-16T04:47:30.748Z,50.877190
2022-12-16T04:48:30.722Z,50.877155
2022-12-16T04:49:30.720Z,50.877075
2022-12-16T04:50:30.715Z,50.877125
2022-12-16T04:51:30.731Z,50.877102
2022-12-16T04:52:30.688Z,50.877201
2022-12-16T04:53:31.052Z,50.877209
2022-12-16T04:54:30.674Z,50.877228
2022-12-16T04:55:30.662Z,50.877197
2022-12-16T04:56:30.658Z,50.877163
2022-12-16T04:57:30.688Z,50.877186
2022-12-16T04:58:30.634Z,50.877171
2022-12-16T04:59:30.632Z,50.877121
2022-12-16T05:00:30.629Z,50.877159
2022-12-16T05:01:30.695Z,50.877190
2022-12-16T05:02:30.774Z,50.877171
2022-12-16T05:03:30.882Z,50.877174
2022-12-16T05:04:30.596Z,50.877140
2022-12-16T05:05:30.607Z,50.877132
2022-12-16T05:06:30.574Z,50.877186
2022-12-16T05:07:36.309Z,50.877220
2022-12-16T05:08:32.567Z,50.877155
2022-12-16T05:09:30.552Z,50.877140
2022-12-16T05:10:30.571Z,50.877136
2022-12-16T05:11:30.529Z,50.877209
2022-12-16T05:12:30.519Z,50.877220
2022-12-16T05:13:30.909Z,50.877182
2022-12-16T05:14:30.517Z,50.877174
2022-12-16T05:15:30.497Z,50.877190
2022-12-16T05:16:30.543Z,50.877209
2022-12-16T05:17:30.509Z,50.877193
2022-12-16T05:18:30.487Z,50.877216
2022-12-16T05:19:31.845Z,50.877213
2022-12-16T05:20:30.515Z,50.877205
2022-12-16T05:21:30.488Z,50.877220
2022-12-16T05:22:30.427Z,50.877224
2022-12-16T05:23:30.786Z,50.877190
2022-12-16T05:24:30.432Z,50.877155
2022-12-16T05:25:30.428Z,50.877213
2022-12-16T05:26:30.431Z,50.877193
2022-12-16T05:27:30.398Z,50.877235
2022-12-16T05:28:30.405Z,50.877197
2022-12-16T05:29:30.376Z,50.877201
2022-12-16T05:30:33.646Z,50.877163
2022-12-16T05:31:31.446Z,50.877205
2022-12-16T05:32:30.370Z,50.877220
2022-12-16T05:33:30.720Z,50.877228
2022-12-16T05:34:30.335Z,50.877228
2022-12-16T05:35:30.325Z,50.877232
2022-12-16T05:36:30.298Z,50.877201
2022-12-16T05:37:30.328Z,50.877247
2022-12-16T05:38:30.290Z,50.877201
2022-12-16T05:39:30.330Z,50.877205
2022-12-16T05:40:30.292Z,50.877216
2022-12-16T05:41:30.268Z,50.877190
2022-12-16T05:42:30.253Z,50.877186
2022-12-16T05:43:30.657Z,50.877213
2022-12-16T05:44:30.274Z,50.877155
2022-12-16T05:45:30.223Z,50.877129
2022-12-16T05:46:30.297Z,50.877209
2022-12-16T05:47:30.244Z,50.877125
2022-12-16T05:48:30.195Z,50.877190
2022-12-16T05:49:30.191Z,50.877220
2022-12-16T05:50:30.191Z,50.877262
2022-12-16T05:51:30.190Z,50.877254
2022-12-16T05:52:30.160Z,50.877193
2022-12-16T05:53:30.481Z,50.877289
2022-12-16T05:54:30.143Z,50.877205
2022-12-16T05:55:33.862Z,50.877205
2022-12-16T05:56:31.154Z,50.877216
2022-12-16T05:57:30.128Z,50.877289
2022-12-16T05:58:30.142Z,50.877163
2022-12-16T05:59:30.105Z,50.877197
2022-12-16T06:00:30.090Z,50.877167
2022-12-16T06:01:30.220Z,50.877182
2022-12-16T06:02:30.192Z,50.877201
2022-12-16T06:03:30.444Z,50.877254
2022-12-16T06:04:30.058Z,50.877312
2022-12-16T06:05:30.034Z,50.877224
2022-12-16T06:06:30.126Z,50.877201
2022-12-16T06:07:30.035Z,50.877167
2022-12-16T06:08:30.011Z,50.877193
2022-12-16T06:09:30.006Z,50.877232
2022-12-16T06:10:29.987Z,50.877258
2022-12-16T06:11:29.989Z,50.877167
2022-12-16T06:12:30.003Z,50.877171
2022-12-16T06:13:30.293Z,50.877163
2022-12-16T06:14:29.981Z,50.877163
2022-12-16T06:15:29.951Z,50.877171
2022-12-16T06:16:29.973Z,50.877171
2022-12-16T06:17:29.976Z,50.877167
2022-12-16T06:18:29.920Z,50.877186
2022-12-16T06:19:29.925Z,50.877171
2022-12-16T06:20:29.903Z,50.877186
2022-12-16T06:21:29.918Z,50.877197
2022-12-16T06:22:29.910Z,50.877190
2022-12-16T06:23:29.883Z,50.877171
2022-12-16T06:24:29.901Z,50.877167
2022-12-16T06:25:29.928Z,50.877174
2022-12-16T06:26:29.861Z,50.877178
2022-12-16T06:27:29.844Z,50.877213
2022-12-16T06:28:29.843Z,50.877220
2022-12-16T06:29:29.831Z,50.877190
2022-12-16T06:30:29.827Z,50.877178
2022-12-16T06:31:29.868Z,50.877159
2022-12-16T06:32:29.821Z,50.877159
2022-12-16T06:33:30.076Z,50.877167
2022-12-16T06:34:29.787Z,50.877171
2022-12-16T06:35:29.774Z,50.877144
2022-12-16T06:36:29.759Z,50.877182
2022-12-16T06:37:29.768Z,50.877159
2022-12-16T06:38:29.768Z,50.877163
2022-12-16T06:39:29.762Z,50.877190
2022-12-16T06:40:29.751Z,50.877182
2022-12-16T06:41:29.722Z,50.877174
2022-12-16T06:42:29.713Z,50.877148
2022-12-16T06:43:30.106Z,50.877155
2022-12-16T06:44:29.728Z,50.877151
2022-12-16T06:45:34.500Z,50.877163
2022-12-16T06:46:31.773Z,50.877167
2022-12-16T06:47:29.660Z,50.877174
2022-12-16T06:48:29.682Z,50.877171
2022-12-16T06:49:29.643Z,50.877182
2022-12-16T06:50:29.639Z,50.877178
2022-12-16T06:51:29.630Z,50.877193
2022-12-16T06:52:29.639Z,50.877190
2022-12-16T06:53:29.731Z,50.877193
2022-12-16T06:54:29.590Z,50.877174
2022-12-16T06:55:29.577Z,50.877174
2022-12-16T06:56:29.574Z,50.877174
2022-12-16T06:57:29.593Z,50.877163
2022-12-16T06:58:29.559Z,50.877174
2022-12-16T06:59:29.619Z,50.877171
2022-12-16T07:00:29.543Z,50.877163
2022-12-16T07:01:30.625Z,50.877159
2022-12-16T07:02:29.634Z,50.877167
2022-12-16T07:03:35.438Z,50.877171
2022-12-16T07:04:31.508Z,50.877163
2022-12-16T07:05:29.499Z,50.877178
2022-12-16T07:06:29.488Z,50.877205
2022-12-16T07:07:29.518Z,50.877228
2022-12-16T07:08:29.500Z,50.877193
2022-12-16T07:09:29.460Z,50.877178
2022-12-16T07:10:29.485Z,50.877174
2022-12-16T07:11:29.441Z,50.877178
2022-12-16T07:12:29.422Z,50.877155
2022-12-16T07:13:29.637Z,50.877155
2022-12-16T07:14:29.413Z,50.877186
2022-12-16T07:15:29.410Z,50.877178
2022-12-16T07:16:29.436Z,50.877186
2022-12-16T07:17:29.386Z,50.877178
2022-12-16T07:18:29.421Z,50.877163
2022-12-16T07:19:29.400Z,50.877159
2022-12-16T07:20:29.384Z,50.877178
2022-12-16T07:21:29.354Z,50.877174
2022-12-16T07:22:29.373Z,50.877178
2022-12-16T07:23:29.402Z,50.877182
2022-12-16T07:24:29.377Z,50.877190
2022-12-16T07:25:29.373Z,50.877159
2022-12-16T07:26:29.341Z,50.877163
2022-12-16T07:27:29.314Z,50.877155
2022-12-16T07:28:29.293Z,50.877171
2022-12-16T07:29:29.307Z,50.877174
2022-12-16T07:30:29.285Z,50.877182
2022-12-16T07:31:29.339Z,50.877155
2022-12-16T07:32:29.252Z,50.877151
2022-12-16T07:33:29.280Z,50.877155
2022-12-16T07:34:29.227Z,50.877159
2022-12-16T07:35:29.274Z,50.877155
2022-12-16T07:36:29.231Z,50.877163
2022-12-16T07:37:29.242Z,50.877171
2022-12-16T07:38:29.205Z,50.877178
2022-12-16T07:39:29.232Z,50.877186
2022-12-16T07:40:29.252Z,50.877190
2022-12-16T07:41:29.186Z,50.877174
2022-12-16T07:42:29.183Z,50.877190
2022-12-16T07:43:29.279Z,50.877151
2022-12-16T07:44:29.205Z,50.877178
2022-12-16T07:45:29.262Z,50.877132
2022-12-16T07:46:29.152Z,50.877094
2022-12-16T07:47:29.105Z,50.877117
2022-12-16T07:48:29.105Z,50.877151
2022-12-16T07:49:29.119Z,50.877136
2022-12-16T07:50:29.103Z,50.877094
2022-12-16T07:51:29.082Z,50.877159
2022-12-16T07:52:29.128Z,50.877144
2022-12-16T07:53:31.307Z,50.877087
2022-12-16T07:54:29.056Z,50.877117
2022-12-16T07:55:29.048Z,50.877094
2022-12-16T07:56:29.037Z,50.877071
2022-12-16T07:57:29.056Z,50.877117
2022-12-16T07:58:29.046Z,50.877155
2022-12-16T07:59:28.999Z,50.877163
2022-12-16T08:00:28.983Z,50.877144
2022-12-16T08:01:29.083Z,50.877132
2022-12-16T08:02:29.265Z,50.877144
2022-12-16T08:03:30.361Z,50.877174
2022-12-16T08:04:29.216Z,50.877125
2022-12-16T08:05:29.170Z,50.877087
2022-12-16T08:06:28.954Z,50.877083
2022-12-16T08:07:28.987Z,50.877167
2022-12-16T08:08:28.982Z,50.877174
2022-12-16T08:09:28.934Z,50.877140
2022-12-16T08:10:28.918Z,50.877087
2022-12-16T08:11:28.895Z,50.877151
2022-12-16T08:12:28.874Z,50.877346
2022-12-16T08:13:28.912Z,50.877445
2022-12-16T08:14:28.859Z,50.877388
2022-12-16T08:15:29.840Z,50.877243
2022-12-16T08:16:29.015Z,50.877243
2022-12-16T08:17:28.842Z,50.877316
2022-12-16T08:18:28.825Z,50.877251
2022-12-16T08:19:28.796Z,50.877159
2022-12-16T08:20:28.883Z,50.877102
2022-12-16T08:21:28.833Z,50.877117
2022-12-16T08:22:28.944Z,50.877132
2022-12-16T08:23:28.803Z,50.877129
2022-12-16T08:24:28.770Z,50.877083
2022-12-16T08:25:28.760Z,50.877129
2022-12-16T08:26:28.785Z,50.877251
2022-12-16T08:27:28.733Z,50.877254
2022-12-16T08:28:28.744Z,50.877220
2022-12-16T08:29:43.797Z,50.877220
2022-12-16T08:30:30.773Z,50.877178
2022-12-16T08:31:28.743Z,50.877159
2022-12-16T08:32:28.729Z,50.877171
2022-12-16T08:33:28.674Z,50.877140
2022-12-16T08:34:28.700Z,50.877205
2022-12-16T08:35:28.688Z,50.877205
2022-12-16T08:36:28.663Z,50.877216
2022-12-16T08:37:28.644Z,50.877163
2022-12-16T08:38:28.650Z,50.877155
2022-12-16T08:39:28.654Z,50.877117
2022-12-16T08:40:36.761Z,50.877216
2022-12-16T08:41:30.604Z,50.877258
2022-12-16T08:42:28.583Z,50.877373
2022-12-16T08:43:28.715Z,50.877361
2022-12-16T08:44:28.726Z,50.877361
2022-12-16T08:45:28.592Z,50.877361
2022-12-16T08:46:28.644Z,50.877361
2022-12-16T08:47:28.553Z,50.877361
2022-12-16T08:48:28.548Z,50.877361
2022-12-16T08:49:28.523Z,50.877361
2022-12-16T08:50:28.516Z,50.877361
2022-12-16T08:51:28.533Z,50.877361
2022-12-16T08:52:28.633Z,50.877361
2022-12-16T08:53:28.623Z,50.877361
2022-12-16T08:54:28.487Z,50.877361
2022-12-16T08:55:29.959Z,50.877361
2022-12-16T08:56:29.496Z,50.877361
2022-12-16T08:57:28.458Z,50.877087
2022-12-16T08:58:28.462Z,50.877087
2022-12-16T08:59:28.458Z,50.877083
2022-12-16T09:00:28.445Z,50.877056
2022-12-16T09:01:28.489Z,50.876942
2022-12-16T09:02:28.594Z,50.876980
2022-12-16T09:03:28.431Z,50.877224
2022-12-16T09:04:28.398Z,50.877384
2022-12-16T09:05:28.406Z,50.877178
2022-12-16T09:06:28.373Z,50.877140
2022-12-16T09:07:28.382Z,50.877140
2022-12-16T09:08:28.359Z,50.877140
2022-12-16T09:09:28.347Z,50.877140
2022-12-16T09:10:28.328Z,50.877140
2022-12-16T09:19:40.481Z,50.876995
2022-12-16T09:20:40.472Z,50.877041
2022-12-16T09:21:40.440Z,50.876987
2022-12-16T09:22:40.439Z,50.876987
2022-12-16T09:23:40.421Z,50.876820
2022-12-16T09:24:40.427Z,50.876911
2022-12-16T09:25:40.415Z,50.877037
2022-12-16T09:26:40.452Z,50.877163
2022-12-16T09:27:40.377Z,50.877216
2022-12-16T09:28:40.390Z,50.877216
2022-12-16T09:29:43.590Z,50.877205
2022-12-16T09:30:41.363Z,50.877209
2022-12-16T09:31:40.494Z,50.877213
2022-12-16T09:32:40.363Z,50.877121
2022-12-16T09:33:40.313Z,50.877014
2022-12-16T09:34:40.311Z,50.877068
2022-12-16T09:35:40.467Z,50.877129
2022-12-16T09:36:40.302Z,50.877140
2022-12-16T09:37:40.321Z,50.877132
2022-12-16T09:38:40.283Z,50.877182
2022-12-16T09:39:40.275Z,50.877178
2022-12-16T09:40:40.258Z,50.877182
2022-12-16T09:41:44.622Z,50.877190
2022-12-16T09:42:41.272Z,50.877193
2022-12-16T09:43:40.249Z,50.877182
2022-12-16T09:44:40.222Z,50.877186
2022-12-16T09:45:40.204Z,50.877155
2022-12-16T09:46:40.363Z,50.877163
2022-12-16T09:47:40.184Z,50.877167
2022-12-16T09:48:40.197Z,50.877159
2022-12-16T09:49:40.194Z,50.877182
2022-12-16T09:50:40.149Z,50.877178
2022-12-16T09:51:40.184Z,50.877197
2022-12-16T09:52:40.149Z,50.877171
2022-12-16T09:53:40.190Z,50.877155
2022-12-16T09:54:40.120Z,50.877171
2022-12-16T09:55:40.127Z,50.877178
2022-12-16T09:56:40.098Z,50.877178
2022-12-16T09:57:40.089Z,50.877186
2022-12-16T09:58:40.108Z,50.877178
2022-12-16T09:59:40.092Z,50.877174
2022-12-16T10:00:40.067Z,50.877174
2022-12-16T10:01:40.351Z,50.877178
2022-12-16T10:02:40.319Z,50.877174
2022-12-16T10:03:40.676Z,50.877174
2022-12-16T10:04:40.074Z,50.877193
2022-12-16T10:05:40.022Z,50.877201
2022-12-16T10:06:40.019Z,50.877216
2022-12-16T10:07:40.021Z,50.877258
2022-12-16T10:08:40.006Z,50.877254
2022-12-16T10:09:39.993Z,50.877247
2022-12-16T10:10:40.015Z,50.877232
2022-12-16T10:11:39.971Z,50.877274
2022-12-16T10:12:39.961Z,50.877243
2022-12-16T10:13:39.961Z,50.877239
2022-12-16T10:14:39.965Z,50.877239
2022-12-16T10:15:39.965Z,50.877289
2022-12-16T10:16:39.938Z,50.877254
2022-12-16T10:17:39.915Z,50.877224
2022-12-16T10:18:40.000Z,50.877228
2022-12-16T10:19:39.922Z,50.877193
2022-12-16T10:20:39.870Z,50.877205
2022-12-16T10:21:39.873Z,50.877224
2022-12-16T10:22:39.897Z,50.877262
2022-12-16T10:23:39.949Z,50.877258
2022-12-16T10:24:39.853Z,50.877243
2022-12-16T10:25:39.867Z,50.877213
2022-12-16T10:26:39.832Z,50.877193
2022-12-16T10:27:39.812Z,50.877190
2022-12-16T10:28:39.813Z,50.877190
2022-12-16T10:29:39.793Z,50.877182
2022-12-16T10:30:40.866Z,50.877186
2022-12-16T10:31:39.866Z,50.877174
2022-12-16T10:32:39.783Z,50.877174
2022-12-16T10:33:39.752Z,50.877209
2022-12-16T10:34:39.767Z,50.877209
2022-12-16T10:35:39.765Z,50.877228
2022-12-16T10:36:39.737Z,50.877247
2022-12-16T10:37:39.725Z,50.877258
2022-12-16T10:38:39.712Z,50.877247
2022-12-16T10:39:39.719Z,50.877216
2022-12-16T10:40:39.701Z,50.877235
2022-12-16T10:41:39.683Z,50.877228
2022-12-16T10:42:39.671Z,50.877197
2022-12-16T10:43:39.664Z,50.877205
2022-12-16T10:44:39.678Z,50.877197
2022-12-16T10:45:39.640Z,50.877220
2022-12-16T10:46:39.732Z,50.877213
2022-12-16T10:47:39.631Z,50.877243
2022-12-16T10:48:43.883Z,50.877235
2022-12-16T10:49:41.732Z,50.877205
2022-12-16T10:50:39.603Z,50.877239
2022-12-16T10:51:39.597Z,50.877216
2022-12-16T10:52:39.558Z,50.877159
2022-12-16T10:53:39.609Z,50.877254
2022-12-16T10:54:39.571Z,50.877213
2022-12-16T10:55:39.552Z,50.877186
2022-12-16T10:56:39.525Z,50.877216
2022-12-16T10:57:39.556Z,50.877232
2022-12-16T10:58:39.530Z,50.877220
2022-12-16T10:59:39.525Z,50.877186
2022-12-16T11:00:39.495Z,50.877213
2022-12-16T11:01:39.630Z,50.877243
2022-12-16T11:02:39.629Z,50.877254
2022-12-16T11:03:39.808Z,50.877216
2022-12-16T11:04:44.367Z,50.877239
2022-12-16T11:05:41.467Z,50.877239
2022-12-16T11:06:39.438Z,50.877224
2022-12-16T11:07:39.440Z,50.877201
2022-12-16T11:08:39.467Z,50.877205
2022-12-16T11:09:39.412Z,50.877186
2022-12-16T11:10:39.438Z,50.877213
2022-12-16T11:11:39.389Z,50.877232
2022-12-16T11:12:39.387Z,50.877224
2022-12-16T11:13:39.403Z,50.877243
2022-12-16T11:14:39.379Z,50.877235
2022-12-16T11:15:41.910Z,50.877213
2022-12-16T11:16:39.451Z,50.877228
2022-12-16T11:17:39.339Z,50.877178
2022-12-16T11:18:39.339Z,50.877178
2022-12-16T11:19:39.356Z,50.877182
2022-12-16T11:20:39.331Z,50.877201
2022-12-16T11:21:39.304Z,50.877186
2022-12-16T11:22:39.309Z,50.877213
2022-12-16T11:23:39.292Z,50.877216
2022-12-16T11:24:39.294Z,50.877220
2022-12-16T11:25:39.251Z,50.877239
2022-12-16T11:26:39.252Z,50.877247
2022-12-16T11:27:39.250Z,50.877243
2022-12-16T11:28:39.255Z,50.877270
2022-12-16T11:29:39.213Z,50.877201
2022-12-16T11:30:39.211Z,50.877190
2022-12-16T11:31:39.229Z,50.877251
2022-12-16T11:32:39.193Z,50.877323